createdAt,value
2019-05-18T00:00:15.476Z,21.62
2019-05-18T00:01:21.213Z,24.05
2019-05-18T00:02:27.227Z,20.15
2019-05-18T00:03:31.581Z,23.35
2019-05-18T00:04:36.179Z,23.00
2019-05-18T00:05:40.431Z,22.02
2019-05-18T00:06:45.050Z,24.20
2019-05-18T00:07:50.941Z,23.73
2019-05-18T00:08:58.196Z,21.30
2019-05-18T00:10:02.570Z,22.58
2019-05-18T00:11:07.289Z,24.90
2019-05-18T00:12:11.690Z,22.85
2019-05-18T00:13:16.225Z,22.87
2019-05-18T00:14:20.527Z,26.37
2019-05-18T00:15:25.094Z,24.52
2019-05-18T00:16:29.468Z,23.12
2019-05-18T00:17:34.017Z,21.80
2019-05-18T00:18:42.294Z,22.32
2019-05-18T00:19:47.312Z,24.52
2019-05-18T00:20:51.692Z,23.20
2019-05-18T00:21:56.107Z,24.40
2019-05-18T00:23:00.539Z,24.60
2019-05-18T00:24:05.030Z,24.50
2019-05-18T00:25:09.458Z,25.97
2019-05-18T00:26:14.199Z,25.92
2019-05-18T00:27:18.493Z,23.85
2019-05-18T00:28:25.386Z,24.65
2019-05-18T00:29:29.762Z,21.55
2019-05-18T00:30:34.392Z,21.55
2019-05-18T00:31:38.660Z,23.45
2019-05-18T00:32:43.179Z,22.90
2019-05-18T00:33:47.538Z,24.60
2019-05-18T00:34:52.073Z,23.30
2019-05-18T00:35:56.460Z,24.10
2019-05-18T00:37:05.300Z,22.35
2019-05-18T00:38:09.578Z,22.95
2019-05-18T00:39:14.204Z,22.62
2019-05-18T00:40:18.710Z,24.87
2019-05-18T00:41:27.569Z,21.35
2019-05-18T00:42:34.867Z,21.07
2019-05-18T00:43:39.262Z,22.02
2019-05-18T00:44:45.185Z,21.15
2019-05-18T00:45:49.761Z,20.68
2019-05-18T00:46:54.089Z,21.23
2019-05-18T00:47:58.724Z,20.80
2019-05-18T00:49:03.267Z,19.65
2019-05-18T00:50:08.055Z,19.70
2019-05-18T00:51:12.407Z,20.12
2019-05-18T00:52:16.949Z,21.27
2019-05-18T00:53:21.286Z,19.25
2019-05-18T00:54:25.843Z,19.80
2019-05-18T00:55:30.153Z,24.18
2019-05-18T00:56:34.794Z,21.17
2019-05-18T00:57:39.152Z,23.42
2019-05-18T00:58:43.615Z,19.98
2019-05-18T00:59:48.040Z,21.50
2019-05-18T01:00:52.512Z,21.82
2019-05-18T01:01:56.783Z,20.50
2019-05-18T01:03:04.221Z,22.45
2019-05-18T01:04:08.556Z,21.45
2019-05-18T01:05:13.672Z,21.70
2019-05-18T01:06:17.992Z,21.23
2019-05-18T01:07:22.518Z,21.48
2019-05-18T01:08:26.900Z,20.35
2019-05-18T01:09:31.417Z,20.72
2019-05-18T01:10:35.805Z,20.35
2019-05-18T01:11:40.294Z,20.15
2019-05-18T01:12:44.709Z,22.65
2019-05-18T01:13:49.162Z,25.20
2019-05-18T01:14:53.456Z,22.58
2019-05-18T01:15:57.961Z,20.90
2019-05-18T01:17:02.300Z,22.30
2019-05-18T01:18:06.936Z,21.20
2019-05-18T01:19:11.337Z,20.80
2019-05-18T01:20:15.920Z,20.62
2019-05-18T01:21:20.178Z,23.38
2019-05-18T01:22:24.722Z,19.10
2019-05-18T01:23:28.994Z,19.27
2019-05-18T01:24:33.560Z,20.05
2019-05-18T01:25:37.914Z,21.62
2019-05-18T01:26:44.564Z,21.73
2019-05-18T01:27:48.910Z,21.60
2019-05-18T01:28:56.496Z,20.77
2019-05-18T01:30:00.933Z,19.50
2019-05-18T01:31:05.496Z,20.43
2019-05-18T01:32:09.767Z,20.17
2019-05-18T01:33:14.342Z,21.60
2019-05-18T01:34:18.760Z,21.95
2019-05-18T01:35:23.378Z,20.05
2019-05-18T01:36:27.646Z,23.05
2019-05-18T01:37:32.188Z,20.43
2019-05-18T01:38:37.988Z,21.97
2019-05-18T01:39:42.426Z,20.82
2019-05-18T01:40:46.808Z,18.50
2019-05-18T01:41:51.266Z,20.12
2019-05-18T01:42:55.552Z,19.98
2019-05-18T01:44:00.042Z,18.25
2019-05-18T01:45:16.206Z,20.08
2019-05-18T01:46:13.206Z,20.35
2019-05-18T01:47:17.512Z,22.15
2019-05-18T01:48:21.987Z,21.35
2019-05-18T01:49:26.269Z,19.42
2019-05-18T01:50:30.726Z,20.05
2019-05-18T01:51:35.197Z,21.02
2019-05-18T01:52:39.778Z,20.80
2019-05-18T01:53:44.088Z,19.75
2019-05-18T01:55:05.517Z,19.10
2019-05-18T01:56:06.557Z,18.92
2019-05-18T01:57:10.944Z,18.75
2019-05-18T01:58:15.246Z,20.97
2019-05-18T01:59:19.791Z,20.20
2019-05-18T02:00:24.211Z,19.70
2019-05-18T02:01:28.656Z,19.92
2019-05-18T02:02:32.932Z,19.60
2019-05-18T02:03:37.383Z,20.52
2019-05-18T02:04:41.697Z,21.55
2019-05-18T02:05:47.474Z,20.68
2019-05-18T02:06:51.722Z,21.02
2019-05-18T02:07:56.292Z,19.70
2019-05-18T02:09:02.915Z,20.02
2019-05-18T02:10:08.498Z,20.55
2019-05-18T02:11:12.899Z,18.90
2019-05-18T02:12:17.338Z,20.57
2019-05-18T02:13:21.710Z,22.00
2019-05-18T02:14:26.308Z,20.23
2019-05-18T02:15:30.649Z,21.80
2019-05-18T02:16:35.217Z,22.75
2019-05-18T02:17:39.547Z,21.23
2019-05-18T02:18:44.067Z,22.52
2019-05-18T02:19:48.469Z,18.17
2019-05-18T02:20:52.912Z,18.55
2019-05-18T02:21:58.712Z,19.40
2019-05-18T02:23:05.474Z,21.97
2019-05-18T02:24:09.759Z,19.07
2019-05-18T02:25:14.283Z,20.15
2019-05-18T02:26:20.822Z,19.62
2019-05-18T02:27:25.462Z,19.12
2019-05-18T02:28:30.005Z,20.00
2019-05-18T02:29:35.957Z,19.77
2019-05-18T02:30:40.325Z,19.45
2019-05-18T02:31:44.954Z,20.40
2019-05-18T02:32:49.357Z,20.97
2019-05-18T02:33:54.030Z,21.85
2019-05-18T02:34:58.410Z,23.15
2019-05-18T02:36:02.905Z,23.50
2019-05-18T02:37:07.267Z,23.98
2019-05-18T02:38:15.450Z,23.45
2019-05-18T02:39:19.812Z,24.32
2019-05-18T02:40:24.332Z,25.48
2019-05-18T02:41:30.162Z,25.97
2019-05-18T02:42:34.699Z,25.43
2019-05-18T02:43:38.956Z,23.27
2019-05-18T02:44:47.103Z,26.60
2019-05-18T02:45:51.433Z,26.30
2019-05-18T02:46:57.252Z,25.00
2019-05-18T02:48:01.567Z,25.65
2019-05-18T02:49:06.160Z,25.12
2019-05-18T02:50:10.847Z,24.50
2019-05-18T02:51:15.386Z,26.40
2019-05-18T02:52:19.638Z,25.68
2019-05-18T02:53:24.128Z,24.63
2019-05-18T02:54:29.538Z,25.82
2019-05-18T02:55:34.127Z,25.35
2019-05-18T02:56:38.435Z,25.95
2019-05-18T02:57:42.876Z,23.73
2019-05-18T02:58:47.234Z,25.95
2019-05-18T02:59:51.766Z,27.20
2019-05-18T03:00:56.031Z,29.45
2019-05-18T03:02:00.588Z,27.37
2019-05-18T03:03:06.609Z,27.67
2019-05-18T03:04:15.149Z,25.68
2019-05-18T03:05:19.507Z,26.93
2019-05-18T03:06:24.071Z,28.70
2019-05-18T03:07:28.441Z,27.80
2019-05-18T03:08:32.968Z,26.40
2019-05-18T03:09:37.456Z,25.40
2019-05-18T03:10:42.145Z,27.98
2019-05-18T03:11:46.612Z,27.80
2019-05-18T03:12:52.421Z,29.72
2019-05-18T03:13:56.707Z,30.90
2019-05-18T03:15:01.221Z,37.23
2019-05-18T03:16:05.679Z,37.88
2019-05-18T03:17:10.713Z,37.15
2019-05-18T03:18:15.174Z,41.70
2019-05-18T03:19:19.755Z,45.55
2019-05-18T03:20:24.052Z,43.02
2019-05-18T03:21:28.547Z,43.17
2019-05-18T03:22:34.346Z,45.15
2019-05-18T03:23:38.854Z,44.38
2019-05-18T03:24:43.200Z,41.48
2019-05-18T03:25:47.662Z,43.70
2019-05-18T03:26:52.074Z,42.65
2019-05-18T03:27:56.619Z,38.65
2019-05-18T03:29:01.057Z,37.95
2019-05-18T03:30:09.367Z,40.10
2019-05-18T03:31:13.729Z,38.90
2019-05-18T03:32:18.180Z,37.75
2019-05-18T03:33:29.108Z,40.28
2019-05-18T03:34:30.167Z,40.30
2019-05-18T03:35:34.934Z,36.75
2019-05-18T03:36:39.548Z,37.70
2019-05-18T03:37:43.814Z,34.88
2019-05-18T03:38:48.276Z,34.45
2019-05-18T03:39:52.711Z,36.23
2019-05-18T03:40:57.246Z,38.00
2019-05-18T03:42:01.632Z,38.25
2019-05-18T03:43:06.120Z,37.65
2019-05-18T03:44:10.557Z,37.33
2019-05-18T03:45:15.276Z,39.27
2019-05-18T03:46:23.569Z,35.70
2019-05-18T03:47:25.907Z,39.58
2019-05-18T03:48:31.761Z,33.78
2019-05-18T03:49:36.264Z,33.53
2019-05-18T03:50:40.528Z,33.83
2019-05-18T03:51:44.989Z,33.92
2019-05-18T03:52:49.353Z,33.75
2019-05-18T03:53:54.830Z,33.05
2019-05-18T03:55:00.876Z,35.70
2019-05-18T03:56:05.334Z,33.05
2019-05-18T03:57:12.278Z,34.40
2019-05-18T03:58:19.900Z,36.50
2019-05-18T03:59:24.185Z,32.85
2019-05-18T04:00:28.724Z,35.98
2019-05-18T04:01:33.064Z,34.35
2019-05-18T04:02:37.512Z,34.75
2019-05-18T04:03:41.891Z,31.17
2019-05-18T04:04:46.431Z,32.33
2019-05-18T04:05:50.771Z,32.60
2019-05-18T04:06:55.264Z,31.52
2019-05-18T04:07:59.661Z,31.93
2019-05-18T04:09:05.731Z,29.45
2019-05-18T04:10:10.613Z,31.70
2019-05-18T04:11:15.045Z,32.55
2019-05-18T04:12:19.689Z,32.23
2019-05-18T04:13:24.245Z,33.50
2019-05-18T04:14:29.792Z,32.63
2019-05-18T04:15:34.209Z,32.17
2019-05-18T04:16:38.532Z,33.08
2019-05-18T04:17:43.013Z,30.10
2019-05-18T04:18:47.342Z,27.95
2019-05-18T04:19:51.838Z,29.02
2019-05-18T04:20:57.325Z,29.67
2019-05-18T04:22:01.961Z,30.65
2019-05-18T04:23:07.363Z,33.10
2019-05-18T04:24:11.941Z,31.15
2019-05-18T04:25:16.237Z,35.25
2019-05-18T04:26:20.746Z,33.65
2019-05-18T04:27:25.019Z,34.60
2019-05-18T04:28:29.476Z,36.83
2019-05-18T04:29:33.812Z,34.92
2019-05-18T04:30:38.319Z,37.63
2019-05-18T04:31:42.704Z,37.93
2019-05-18T04:32:47.245Z,38.08
2019-05-18T04:33:51.517Z,35.17
2019-05-18T04:34:55.995Z,37.15
2019-05-18T04:36:00.297Z,33.20
2019-05-18T04:37:04.806Z,34.03
2019-05-18T04:38:09.102Z,36.70
2019-05-18T04:39:14.876Z,39.63
2019-05-18T04:40:20.375Z,38.60
2019-05-18T04:41:26.290Z,38.75
2019-05-18T04:42:30.627Z,33.28
2019-05-18T04:43:35.179Z,35.08
2019-05-18T04:44:39.450Z,36.75
2019-05-18T04:45:43.925Z,35.45
2019-05-18T04:46:48.220Z,37.53
2019-05-18T04:47:52.715Z,34.18
2019-05-18T04:48:56.985Z,32.38
2019-05-18T04:50:05.572Z,33.95
2019-05-18T04:51:07.659Z,32.58
2019-05-18T04:52:13.226Z,30.72
2019-05-18T04:53:17.514Z,31.37
2019-05-18T04:54:22.085Z,29.85
2019-05-18T04:55:26.434Z,28.38
2019-05-18T04:56:31.602Z,23.70
2019-05-18T04:57:36.339Z,25.25
2019-05-18T04:58:40.786Z,22.20
2019-05-18T04:59:46.857Z,28.83
2019-05-18T05:00:51.362Z,23.55
2019-05-18T05:01:55.720Z,23.85
2019-05-18T05:03:00.234Z,23.40
2019-05-18T05:04:04.643Z,23.85
2019-05-18T05:05:09.338Z,25.23
2019-05-18T05:06:13.574Z,26.30
2019-05-18T05:07:18.057Z,19.73
2019-05-18T05:08:22.315Z,17.57
2019-05-18T05:09:26.777Z,22.98
2019-05-18T05:10:31.043Z,16.65
2019-05-18T05:11:35.491Z,14.25
2019-05-18T05:12:39.778Z,14.13
2019-05-18T05:13:44.338Z,17.75
2019-05-18T05:14:48.574Z,14.35
2019-05-18T05:15:53.101Z,14.87
2019-05-18T05:16:57.462Z,15.25
2019-05-18T05:18:01.887Z,15.32
2019-05-18T05:19:08.714Z,16.10
2019-05-18T05:20:19.816Z,18.55
2019-05-18T05:21:19.404Z,15.60
2019-05-18T05:22:23.985Z,14.43
2019-05-18T05:23:28.298Z,16.57
2019-05-18T05:24:32.801Z,13.88
2019-05-18T05:25:37.189Z,15.18
2019-05-18T05:26:42.382Z,14.13
2019-05-18T05:27:46.652Z,13.55
2019-05-18T05:28:51.132Z,12.20
2019-05-18T05:29:55.410Z,12.33
2019-05-18T05:31:01.655Z,13.15
2019-05-18T05:32:05.945Z,14.15
2019-05-18T05:33:10.401Z,11.50
2019-05-18T05:34:17.959Z,12.30
2019-05-18T05:35:22.454Z,13.50
2019-05-18T05:36:26.709Z,12.60
2019-05-18T05:37:31.197Z,14.55
2019-05-18T05:38:37.536Z,14.73
2019-05-18T05:39:44.058Z,13.20
2019-05-18T05:40:48.991Z,14.35
2019-05-18T05:41:53.465Z,14.28
2019-05-18T05:42:57.749Z,13.32
2019-05-18T05:44:02.238Z,13.18
2019-05-18T05:45:10.044Z,13.03
2019-05-18T05:46:14.522Z,13.35
2019-05-18T05:47:18.875Z,15.10
2019-05-18T05:48:23.409Z,13.20
2019-05-18T05:49:27.771Z,13.95
2019-05-18T05:50:35.808Z,16.32
2019-05-18T05:51:38.267Z,12.43
2019-05-18T05:52:44.499Z,11.97
2019-05-18T05:53:48.695Z,12.93
2019-05-18T05:54:53.134Z,12.98
2019-05-18T05:55:57.490Z,11.28
2019-05-18T05:57:01.945Z,12.30
2019-05-18T05:58:06.325Z,12.93
2019-05-18T05:59:13.542Z,14.13
2019-05-18T06:00:18.347Z,10.55
2019-05-18T06:01:26.070Z,12.07
2019-05-18T06:02:30.399Z,12.15
2019-05-18T06:03:34.867Z,12.23
2019-05-18T06:04:39.140Z,13.55
2019-05-18T06:05:43.573Z,12.35
2019-05-18T06:06:47.881Z,12.40
2019-05-18T06:07:52.370Z,14.45
2019-05-18T06:08:56.632Z,11.05
2019-05-18T06:10:01.074Z,11.35
2019-05-18T06:11:05.484Z,13.85
2019-05-18T06:12:09.933Z,15.28
2019-05-18T06:13:14.324Z,17.20
2019-05-18T06:14:18.685Z,12.55
2019-05-18T06:15:23.001Z,11.90
2019-05-18T06:16:27.483Z,12.88
2019-05-18T06:17:31.758Z,12.23
2019-05-18T06:18:36.209Z,12.13
2019-05-18T06:19:40.574Z,10.05
2019-05-18T06:20:51.542Z,12.05
2019-05-18T06:21:52.193Z,10.40
2019-05-18T06:22:56.836Z,11.48
2019-05-18T06:24:01.085Z,10.25
2019-05-18T06:25:07.883Z,12.10
2019-05-18T06:26:12.348Z,9.95
2019-05-18T06:27:16.921Z,10.53
2019-05-18T06:28:21.297Z,11.45
2019-05-18T06:29:25.743Z,12.18
2019-05-18T06:30:30.006Z,10.32
2019-05-18T06:31:34.515Z,10.82
2019-05-18T06:32:38.883Z,13.85
2019-05-18T06:33:43.314Z,13.53
2019-05-18T06:34:47.673Z,11.22
2019-05-18T06:35:53.825Z,12.28
2019-05-18T06:36:58.101Z,12.03
2019-05-18T06:38:02.806Z,10.50
2019-05-18T06:39:07.829Z,11.83
2019-05-18T06:40:13.261Z,11.45
2019-05-18T06:41:19.152Z,9.95
2019-05-18T06:42:23.682Z,9.95
2019-05-18T06:43:27.972Z,12.15
2019-05-18T06:44:32.489Z,12.73
2019-05-18T06:45:37.266Z,13.00
2019-05-18T06:46:41.719Z,12.75
2019-05-18T06:47:48.334Z,10.50
2019-05-18T06:48:52.077Z,12.55
2019-05-18T06:49:56.489Z,11.97
2019-05-18T06:51:07.298Z,11.10
2019-05-18T06:52:07.000Z,12.63
2019-05-18T06:53:11.516Z,10.93
2019-05-18T06:54:17.423Z,10.53
2019-05-18T06:55:21.950Z,13.83
2019-05-18T06:56:29.352Z,12.03
2019-05-18T06:57:34.704Z,12.70
2019-05-18T06:58:39.519Z,10.95
2019-05-18T06:59:45.602Z,11.68
2019-05-18T07:00:52.883Z,10.93
2019-05-18T07:01:57.628Z,11.78
2019-05-18T07:03:01.993Z,13.30
2019-05-18T07:04:08.008Z,12.35
2019-05-18T07:05:14.630Z,12.95
2019-05-18T07:06:19.065Z,13.32
2019-05-18T07:07:23.384Z,12.10
2019-05-18T07:08:27.937Z,12.65
2019-05-18T07:09:32.323Z,11.12
2019-05-18T07:10:36.786Z,12.18
2019-05-18T07:11:41.115Z,13.10
2019-05-18T07:12:47.178Z,14.40
2019-05-18T07:13:51.574Z,22.37
2019-05-18T07:15:00.113Z,14.90
2019-05-18T07:16:03.670Z,14.20
2019-05-18T07:17:08.139Z,14.85
2019-05-18T07:18:14.437Z,10.30
2019-05-18T07:19:18.899Z,13.25
2019-05-18T07:20:23.189Z,13.48
2019-05-18T07:21:27.645Z,13.20
2019-05-18T07:22:32.005Z,12.20
2019-05-18T07:23:36.510Z,13.30
2019-05-18T07:24:40.761Z,14.13
2019-05-18T07:25:45.214Z,12.33
2019-05-18T07:26:49.595Z,14.38
2019-05-18T07:27:55.226Z,12.75
2019-05-18T07:28:59.739Z,15.72
2019-05-18T07:30:06.435Z,13.85
2019-05-18T07:31:15.090Z,14.07
2019-05-18T07:32:20.554Z,15.30
2019-05-18T07:33:26.008Z,15.85
2019-05-18T07:34:31.830Z,15.58
2019-05-18T07:35:36.195Z,14.60
2019-05-18T07:36:40.722Z,13.65
2019-05-18T07:37:45.082Z,12.70
2019-05-18T07:38:49.717Z,13.15
2019-05-18T07:39:54.085Z,11.18
2019-05-18T07:40:58.545Z,13.50
2019-05-18T07:42:02.841Z,11.10
2019-05-18T07:43:07.317Z,14.25
2019-05-18T07:44:11.678Z,13.08
2019-05-18T07:45:16.463Z,13.68
2019-05-18T07:46:20.874Z,14.25
2019-05-18T07:47:25.501Z,13.80
2019-05-18T07:48:29.912Z,15.00
2019-05-18T07:49:34.294Z,14.83
2019-05-18T07:50:38.755Z,20.60
2019-05-18T07:51:43.213Z,14.13
2019-05-18T07:52:47.479Z,14.98
2019-05-18T07:53:52.044Z,16.35
2019-05-18T07:54:56.370Z,15.60
2019-05-18T07:56:02.420Z,16.45
2019-05-18T07:57:06.812Z,14.78
2019-05-18T07:58:11.811Z,16.45
2019-05-18T07:59:19.890Z,16.23
2019-05-18T08:00:23.706Z,16.15
2019-05-18T08:01:28.032Z,17.80
2019-05-18T08:02:32.574Z,17.73
2019-05-18T08:03:36.877Z,17.27
2019-05-18T08:04:41.337Z,17.57
2019-05-18T08:05:45.673Z,17.48
2019-05-18T08:06:50.268Z,18.10
2019-05-18T08:07:54.563Z,18.02
2019-05-18T08:08:59.122Z,14.83
2019-05-18T08:10:04.053Z,15.98
2019-05-18T08:11:10.061Z,14.30
2019-05-18T08:12:14.401Z,14.53
2019-05-18T08:13:18.951Z,13.72
2019-05-18T08:14:23.304Z,13.20
2019-05-18T08:15:27.897Z,11.40
2019-05-18T08:16:34.871Z,11.25
2019-05-18T08:17:40.685Z,10.28
2019-05-18T08:18:45.012Z,13.48
2019-05-18T08:19:49.610Z,12.07
2019-05-18T08:20:53.862Z,11.28
2019-05-18T08:21:58.534Z,12.15
2019-05-18T08:23:02.836Z,11.40
2019-05-18T08:24:08.676Z,10.98
2019-05-18T08:25:16.301Z,11.55
2019-05-18T08:26:22.521Z,11.05
2019-05-18T08:27:28.346Z,10.15
2019-05-18T08:28:34.435Z,10.35
2019-05-18T08:29:43.661Z,12.00
2019-05-18T08:30:51.560Z,13.60
2019-05-18T08:31:56.964Z,11.53
2019-05-18T08:33:01.864Z,10.58
2019-05-18T08:34:05.972Z,11.53
2019-05-18T08:35:11.150Z,12.93
2019-05-18T08:36:15.296Z,10.75
2019-05-18T08:37:20.045Z,10.32
2019-05-18T08:38:24.196Z,13.88
2019-05-18T08:39:30.415Z,11.25
2019-05-18T08:40:34.562Z,10.85
2019-05-18T08:41:39.266Z,11.45
2019-05-18T08:42:50.311Z,9.68
2019-05-18T08:43:54.465Z,9.68
2019-05-18T08:44:58.641Z,13.10
2019-05-18T08:46:03.439Z,13.03
2019-05-18T08:47:07.586Z,12.40
2019-05-18T08:48:12.254Z,9.83
2019-05-18T08:49:17.505Z,11.57
2019-05-18T08:50:22.277Z,12.63
2019-05-18T08:51:26.650Z,12.78
2019-05-18T08:52:35.222Z,15.05
2019-05-18T08:53:39.568Z,15.05
2019-05-18T08:54:44.408Z,12.73
2019-05-18T08:55:51.864Z,17.12
2019-05-18T08:56:59.196Z,13.88
2019-05-18T08:58:03.653Z,11.95
2019-05-18T08:59:08.504Z,15.00
2019-05-18T09:00:15.726Z,14.78
2019-05-18T09:01:19.730Z,12.25
2019-05-18T09:02:25.666Z,16.40
2019-05-18T09:03:37.274Z,14.85
2019-05-18T09:04:44.710Z,13.28
2019-05-18T09:05:52.095Z,13.85
2019-05-18T09:06:58.553Z,13.65
2019-05-18T09:08:06.057Z,12.70
2019-05-18T09:09:12.079Z,12.70
2019-05-18T09:10:19.265Z,15.20
2019-05-18T09:11:32.976Z,13.05
2019-05-18T09:12:37.800Z,12.60
2019-05-18T09:13:42.014Z,11.57
2019-05-18T09:14:46.920Z,14.75
2019-05-18T09:15:55.943Z,13.48
2019-05-18T09:16:57.449Z,11.95
2019-05-18T09:18:04.751Z,11.35
2019-05-18T09:19:11.826Z,12.63
2019-05-18T09:20:17.269Z,14.25
2019-05-18T09:21:23.954Z,13.30
2019-05-18T09:22:33.049Z,11.93
2019-05-18T09:23:45.407Z,14.35
2019-05-18T09:24:52.318Z,12.07
2019-05-18T09:26:02.348Z,12.75
2019-05-18T09:27:05.499Z,14.20
2019-05-18T09:28:11.861Z,12.98
2019-05-18T09:29:20.661Z,12.30
2019-05-18T09:30:25.642Z,15.30
2019-05-18T09:31:30.104Z,12.28
2019-05-18T09:32:36.346Z,12.73
2019-05-18T09:33:51.090Z,14.47
2019-05-18T09:35:05.530Z,13.18
2019-05-18T09:36:11.410Z,13.30
2019-05-18T09:37:16.989Z,13.10
2019-05-18T09:38:27.280Z,12.73
2019-05-18T09:40:44.553Z,11.85
2019-05-18T09:41:57.156Z,10.88
2019-05-18T09:43:06.978Z,10.53
2019-05-18T09:44:13.863Z,10.38
2019-05-18T09:45:20.141Z,10.30
2019-05-18T09:46:24.575Z,9.13
2019-05-18T09:47:29.234Z,9.40
2019-05-18T09:48:33.652Z,8.75
2019-05-18T09:49:38.207Z,9.48
2019-05-18T09:50:44.913Z,9.98
2019-05-18T09:51:49.467Z,8.63
2019-05-18T09:52:54.058Z,8.20
2019-05-18T09:53:59.048Z,8.53
2019-05-18T09:55:10.354Z,9.05
2019-05-18T09:56:17.550Z,7.50
2019-05-18T09:57:25.880Z,9.25
2019-05-18T09:58:30.540Z,9.05
2019-05-18T09:59:34.964Z,8.83
2019-05-18T10:00:39.659Z,9.95
2019-05-18T10:01:44.219Z,8.80
2019-05-18T10:02:52.212Z,7.30
2019-05-18T10:03:56.988Z,7.70
2019-05-18T10:05:13.754Z,8.78
2019-05-18T10:06:18.271Z,6.90
2019-05-18T10:07:23.396Z,7.33
2019-05-18T10:08:31.964Z,7.75
2019-05-18T10:09:39.538Z,7.55
2019-05-18T10:10:44.099Z,7.58
2019-05-18T10:11:51.938Z,6.37
2019-05-18T10:13:00.062Z,7.42
2019-05-18T10:14:05.470Z,7.25
2019-05-18T10:15:11.605Z,8.35
2019-05-18T10:16:19.011Z,8.00
2019-05-18T10:17:26.092Z,7.42
2019-05-18T10:18:32.240Z,7.65
2019-05-18T10:19:36.722Z,6.92
2019-05-18T10:20:43.236Z,6.90
2019-05-18T10:21:47.296Z,8.30
2019-05-18T10:23:04.122Z,7.80
2019-05-18T10:24:02.044Z,7.55
2019-05-18T10:25:07.432Z,8.85
2019-05-18T10:26:13.252Z,8.50
2019-05-18T10:27:17.899Z,9.30
2019-05-18T10:28:23.623Z,9.88
2019-05-18T10:29:28.101Z,10.15
2019-05-18T10:30:32.464Z,10.23
2019-05-18T10:31:36.940Z,9.90
2019-05-18T10:32:42.906Z,10.63
2019-05-18T10:33:47.297Z,10.72
2019-05-18T10:34:51.565Z,10.63
2019-05-18T10:35:56.258Z,12.25
2019-05-18T10:37:00.620Z,10.82
2019-05-18T10:38:11.495Z,10.93
2019-05-18T10:39:15.157Z,11.00
2019-05-18T10:40:19.911Z,11.30
2019-05-18T10:41:24.268Z,11.18
2019-05-18T10:42:28.691Z,11.00
2019-05-18T10:43:33.180Z,11.05
2019-05-18T10:44:40.689Z,11.18
2019-05-18T10:45:45.431Z,11.15
2019-05-18T10:46:50.044Z,12.00
2019-05-18T10:47:54.343Z,11.78
2019-05-18T10:48:58.822Z,11.55
2019-05-18T10:50:03.203Z,11.78
2019-05-18T10:51:07.932Z,11.33
2019-05-18T10:52:13.800Z,11.53
2019-05-18T10:53:28.337Z,11.35
2019-05-18T10:54:24.276Z,10.75
2019-05-18T10:55:28.936Z,10.70
2019-05-18T10:56:33.338Z,10.35
2019-05-18T10:57:37.933Z,10.23
2019-05-18T10:58:42.439Z,10.75
2019-05-18T10:59:48.604Z,11.40
2019-05-18T11:00:54.497Z,11.25
2019-05-18T11:02:01.531Z,10.90
2019-05-18T11:03:07.650Z,10.32
2019-05-18T11:04:12.135Z,11.57
2019-05-18T11:05:16.750Z,10.80
2019-05-18T11:06:21.384Z,10.98
2019-05-18T11:07:28.877Z,11.03
2019-05-18T11:08:31.853Z,11.30
2019-05-18T11:09:36.354Z,11.20
2019-05-18T11:10:40.880Z,10.80
2019-05-18T11:11:45.152Z,11.43
2019-05-18T11:12:49.703Z,11.28
2019-05-18T11:13:56.124Z,12.20
2019-05-18T11:15:00.713Z,11.90
2019-05-18T11:16:05.165Z,11.30
2019-05-18T11:17:09.921Z,11.95
2019-05-18T11:18:14.417Z,11.57
2019-05-18T11:19:18.921Z,10.43
2019-05-18T11:20:23.347Z,10.75
2019-05-18T11:21:30.970Z,10.32
2019-05-18T11:22:35.343Z,10.93
2019-05-18T11:23:43.665Z,10.30
2019-05-18T11:24:47.146Z,10.08
2019-05-18T11:25:51.689Z,9.88
2019-05-18T11:26:56.015Z,11.28
2019-05-18T11:28:03.504Z,12.15
2019-05-18T11:29:07.438Z,11.75
2019-05-18T11:30:13.926Z,11.53
2019-05-18T11:31:18.292Z,11.12
2019-05-18T11:32:22.843Z,11.48
2019-05-18T11:33:27.148Z,13.45
2019-05-18T11:34:31.750Z,11.03
2019-05-18T11:35:36.139Z,11.73
2019-05-18T11:36:40.721Z,10.82
2019-05-18T11:37:47.223Z,11.43
2019-05-18T11:38:55.233Z,10.82
2019-05-18T11:39:59.816Z,10.70
2019-05-18T11:41:04.842Z,10.30
2019-05-18T11:42:10.666Z,10.63
2019-05-18T11:43:15.150Z,13.62
2019-05-18T11:44:19.577Z,12.40
2019-05-18T11:45:25.078Z,11.68
2019-05-18T11:46:32.168Z,11.50
2019-05-18T11:47:36.844Z,11.35
2019-05-18T11:48:41.407Z,11.95
2019-05-18T11:49:45.994Z,11.53
2019-05-18T11:50:50.486Z,13.13
2019-05-18T11:51:55.277Z,11.70
2019-05-18T11:52:59.672Z,13.38
2019-05-18T11:54:05.521Z,11.60
2019-05-18T11:55:13.519Z,13.18
2019-05-18T11:56:21.992Z,16.45
2019-05-18T11:57:28.400Z,11.93
2019-05-18T11:58:33.022Z,11.97
2019-05-18T11:59:37.356Z,12.85
2019-05-18T12:00:41.826Z,12.53
2019-05-18T12:01:46.282Z,11.80
2019-05-18T12:02:51.642Z,11.83
2019-05-18T12:03:56.196Z,12.35
2019-05-18T12:05:00.795Z,11.48
2019-05-18T12:06:05.253Z,13.32
2019-05-18T12:07:13.643Z,10.95
2019-05-18T12:08:19.619Z,11.28
2019-05-18T12:09:24.312Z,11.68
2019-05-18T12:10:28.732Z,11.88
2019-05-18T12:11:33.315Z,10.93
2019-05-18T12:12:37.805Z,12.53
2019-05-18T12:13:42.467Z,11.60
2019-05-18T12:14:49.527Z,12.05
2019-05-18T12:15:54.243Z,11.90
2019-05-18T12:16:58.474Z,12.30
2019-05-18T12:18:03.041Z,11.12
2019-05-18T12:19:07.396Z,11.35
2019-05-18T12:20:13.697Z,11.60
2019-05-18T12:21:18.010Z,10.95
2019-05-18T12:22:25.620Z,12.40
2019-05-18T12:23:32.798Z,12.90
2019-05-18T12:24:37.373Z,11.95
2019-05-18T12:25:41.772Z,11.38
2019-05-18T12:26:46.411Z,11.63
2019-05-18T12:27:50.881Z,12.07
2019-05-18T12:28:55.487Z,12.60
2019-05-18T12:30:00.836Z,11.68
2019-05-18T12:31:05.334Z,11.57
2019-05-18T12:32:09.665Z,10.80
2019-05-18T12:33:14.221Z,12.68
2019-05-18T12:34:18.874Z,12.05
2019-05-18T12:35:23.489Z,14.28
2019-05-18T12:36:27.828Z,13.32
2019-05-18T12:37:32.285Z,13.05
2019-05-18T12:38:36.561Z,12.25
2019-05-18T12:39:46.272Z,12.78
2019-05-18T12:40:50.648Z,11.75
2019-05-18T12:41:55.157Z,11.85
2019-05-18T12:42:59.666Z,11.28
2019-05-18T12:44:04.536Z,14.60
2019-05-18T12:45:09.219Z,12.73
2019-05-18T12:46:16.848Z,13.45
2019-05-18T12:47:21.107Z,12.73
2019-05-18T12:48:25.616Z,12.73
2019-05-18T12:49:29.884Z,12.07
2019-05-18T12:50:34.576Z,13.30
2019-05-18T12:51:42.678Z,11.78
2019-05-18T12:52:47.537Z,10.98
2019-05-18T12:53:51.868Z,11.08
2019-05-18T12:54:56.463Z,11.50
2019-05-18T12:56:00.801Z,11.57
2019-05-18T12:57:05.344Z,11.18
2019-05-18T12:58:09.689Z,11.57
2019-05-18T12:59:14.200Z,10.80
2019-05-18T13:00:19.770Z,11.60
2019-05-18T13:01:24.380Z,11.30
2019-05-18T13:02:33.014Z,10.95
2019-05-18T13:03:37.528Z,11.68
2019-05-18T13:04:42.163Z,11.35
2019-05-18T13:05:46.823Z,11.43
2019-05-18T13:06:51.166Z,11.03
2019-05-18T13:07:57.660Z,11.97
2019-05-18T13:09:01.818Z,10.68
2019-05-18T13:10:11.383Z,10.90
2019-05-18T13:11:15.766Z,11.97
2019-05-18T13:12:20.264Z,11.70
2019-05-18T13:13:24.673Z,11.68
2019-05-18T13:14:29.111Z,11.68
2019-05-18T13:15:35.874Z,11.30
2019-05-18T13:16:39.631Z,13.15
2019-05-18T13:17:44.029Z,12.53
2019-05-18T13:18:48.539Z,11.43
2019-05-18T13:19:52.928Z,12.35
2019-05-18T13:20:57.884Z,10.93
2019-05-18T13:22:02.299Z,10.68
2019-05-18T13:23:09.971Z,11.38
2019-05-18T13:24:14.346Z,12.23
2019-05-18T13:25:19.327Z,11.25
2019-05-18T13:26:23.671Z,11.40
2019-05-18T13:27:38.839Z,10.00
2019-05-18T13:28:34.109Z,11.60
2019-05-18T13:29:38.735Z,11.38
2019-05-18T13:30:45.675Z,11.68
2019-05-18T13:31:49.537Z,14.25
2019-05-18T13:32:54.017Z,14.70
2019-05-18T13:33:58.731Z,13.75
2019-05-18T13:35:05.212Z,13.05
2019-05-18T13:36:09.912Z,12.75
2019-05-18T13:37:14.454Z,10.88
2019-05-18T13:38:21.883Z,10.75
2019-05-18T13:39:26.253Z,10.70
2019-05-18T13:40:32.028Z,10.03
2019-05-18T13:41:36.475Z,11.60
2019-05-18T13:42:41.064Z,10.95
2019-05-18T13:43:45.707Z,10.35
2019-05-18T13:44:51.659Z,11.68
2019-05-18T13:45:56.076Z,10.20
2019-05-18T13:47:00.709Z,9.98
2019-05-18T13:48:05.223Z,10.53
2019-05-18T13:49:12.970Z,10.23
2019-05-18T13:50:18.911Z,10.60
2019-05-18T13:51:24.961Z,9.88
2019-05-18T13:52:29.212Z,9.20
2019-05-18T13:53:33.728Z,10.10
2019-05-18T13:54:38.017Z,11.10
2019-05-18T13:55:42.713Z,10.40
2019-05-18T13:56:48.282Z,10.82
2019-05-18T13:57:52.672Z,11.18
2019-05-18T13:58:56.985Z,10.55
2019-05-18T14:00:01.503Z,10.68
2019-05-18T14:01:05.798Z,10.30
2019-05-18T14:02:10.253Z,10.50